sensor_id;sensor_type;location;lat;lon;timestamp;P1;durP1;ratioP1;P2;durP2;ratioP2
41875;SDS011;27555;50.808;4.402;2023-08-12T00:01:49;6.97;;;2.70;;
41875;SDS011;27555;50.808;4.402;2023-08-12T00:04:14;7.60;;;2.67;;
41875;SDS011;27555;50.808;4.402;2023-08-12T00:06:41;6.30;;;2.83;;
41875;SDS011;27555;50.808;4.402;2023-08-12T00:09:07;7.55;;;3.30;;
41875;SDS011;27555;50.808;4.402;2023-08-12T00:11:35;7.75;;;2.90;;
41875;SDS011;27555;50.808;4.402;2023-08-12T00:14:01;8.82;;;2.85;;
41875;SDS011;27555;50.808;4.402;2023-08-12T00:16:26;7.32;;;2.53;;
41875;SDS011;27555;50.808;4.402;2023-08-12T00:18:52;5.50;;;2.88;;
41875;SDS011;27555;50.808;4.402;2023-08-12T00:21:17;9.65;;;2.70;;
41875;SDS011;27555;50.808;4.402;2023-08-12T00:23:43;6.88;;;2.90;;
41875;SDS011;27555;50.808;4.402;2023-08-12T00:26:09;4.57;;;2.22;;
41875;SDS011;27555;50.808;4.402;2023-08-12T00:28:35;9.23;;;3.30;;
41875;SDS011;27555;50.808;4.402;2023-08-12T00:31:02;7.82;;;3.70;;
41875;SDS011;27555;50.808;4.402;2023-08-12T00:33:28;6.32;;;2.72;;
41875;SDS011;27555;50.808;4.402;2023-08-12T00:35:54;10.20;;;3.22;;
41875;SDS011;27555;50.808;4.402;2023-08-12T00:38:20;7.90;;;3.65;;
41875;SDS011;27555;50.808;4.402;2023-08-12T00:40:46;6.60;;;3.10;;
41875;SDS011;27555;50.808;4.402;2023-08-12T00:43:12;7.25;;;3.20;;
41875;SDS011;27555;50.808;4.402;2023-08-12T00:45:37;6.20;;;2.97;;
41875;SDS011;27555;50.808;4.402;2023-08-12T00:48:03;7.25;;;2.80;;
41875;SDS011;27555;50.808;4.402;2023-08-12T00:50:30;11.23;;;3.15;;
41875;SDS011;27555;50.808;4.402;2023-08-12T00:52:57;6.78;;;2.67;;
41875;SDS011;27555;50.808;4.402;2023-08-12T00:55:23;9.85;;;3.30;;
41875;SDS011;27555;50.808;4.402;2023-08-12T00:57:49;6.13;;;2.58;;
41875;SDS011;27555;50.808;4.402;2023-08-12T01:00:15;14.10;;;3.33;;
41875;SDS011;27555;50.808;4.402;2023-08-12T01:02:45;8.80;;;2.58;;
41875;SDS011;27555;50.808;4.402;2023-08-12T01:05:13;7.72;;;2.95;;
41875;SDS011;27555;50.808;4.402;2023-08-12T01:07:40;8.65;;;2.65;;
41875;SDS011;27555;50.808;4.402;2023-08-12T01:10:06;8.75;;;3.10;;
41875;SDS011;27555;50.808;4.402;2023-08-12T01:12:36;4.60;;;2.45;;
41875;SDS011;27555;50.808;4.402;2023-08-12T01:15:15;7.40;;;3.03;;
41875;SDS011;27555;50.808;4.402;2023-08-12T01:17:46;6.57;;;2.55;;
41875;SDS011;27555;50.808;4.402;2023-08-12T01:20:17;7.45;;;3.28;;
41875;SDS011;27555;50.808;4.402;2023-08-12T01:22:49;9.63;;;3.15;;
41875;SDS011;27555;50.808;4.402;2023-08-12T01:25:38;7.10;;;2.88;;
41875;SDS011;27555;50.808;4.402;2023-08-12T01:28:04;9.23;;;3.30;;
41875;SDS011;27555;50.808;4.402;2023-08-12T01:30:31;9.10;;;2.70;;
41875;SDS011;27555;50.808;4.402;2023-08-12T01:33:04;8.65;;;2.97;;
41875;SDS011;27555;50.808;4.402;2023-08-12T01:35:47;7.80;;;3.03;;
41875;SDS011;27555;50.808;4.402;2023-08-12T01:38:20;6.93;;;3.05;;
41875;SDS011;27555;50.808;4.402;2023-08-12T01:40:49;7.78;;;2.88;;
41875;SDS011;27555;50.808;4.402;2023-08-12T01:43:17;8.73;;;3.88;;
41875;SDS011;27555;50.808;4.402;2023-08-12T01:45:43;7.32;;;3.30;;
41875;SDS011;27555;50.808;4.402;2023-08-12T01:48:09;9.98;;;3.53;;
41875;SDS011;27555;50.808;4.402;2023-08-12T01:50:34;9.50;;;3.72;;
41875;SDS011;27555;50.808;4.402;2023-08-12T01:53:00;9.75;;;3.80;;
41875;SDS011;27555;50.808;4.402;2023-08-12T01:55:26;11.05;;;3.55;;
41875;SDS011;27555;50.808;4.402;2023-08-12T01:57:51;5.13;;;3.00;;
41875;SDS011;27555;50.808;4.402;2023-08-12T02:00:17;12.05;;;4.13;;
41875;SDS011;27555;50.808;4.402;2023-08-12T02:02:43;8.90;;;3.53;;
41875;SDS011;27555;50.808;4.402;2023-08-12T02:05:11;17.00;;;4.17;;
41875;SDS011;27555;50.808;4.402;2023-08-12T02:07:38;9.88;;;3.60;;
41875;SDS011;27555;50.808;4.402;2023-08-12T02:10:03;12.48;;;3.78;;
41875;SDS011;27555;50.808;4.402;2023-08-12T02:12:29;9.15;;;3.35;;
41875;SDS011;27555;50.808;4.402;2023-08-12T02:14:55;12.85;;;3.83;;
41875;SDS011;27555;50.808;4.402;2023-08-12T02:17:20;8.20;;;3.67;;
41875;SDS011;27555;50.808;4.402;2023-08-12T02:19:46;10.35;;;4.30;;
41875;SDS011;27555;50.808;4.402;2023-08-12T02:22:12;11.25;;;4.18;;
41875;SDS011;27555;50.808;4.402;2023-08-12T02:24:37;9.32;;;3.88;;
41875;SDS011;27555;50.808;4.402;2023-08-12T02:27:03;11.23;;;3.83;;
41875;SDS011;27555;50.808;4.402;2023-08-12T02:29:29;7.05;;;3.50;;
41875;SDS011;27555;50.808;4.402;2023-08-12T02:31:54;10.07;;;4.32;;
41875;SDS011;27555;50.808;4.402;2023-08-12T02:34:20;13.15;;;4.65;;
41875;SDS011;27555;50.808;4.402;2023-08-12T02:36:46;11.18;;;3.95;;
41875;SDS011;27555;50.808;4.402;2023-08-12T02:39:11;8.45;;;3.70;;
41875;SDS011;27555;50.808;4.402;2023-08-12T02:41:37;12.60;;;4.00;;
41875;SDS011;27555;50.808;4.402;2023-08-12T02:44:03;11.48;;;4.60;;
41875;SDS011;27555;50.808;4.402;2023-08-12T02:46:28;7.15;;;3.72;;
41875;SDS011;27555;50.808;4.402;2023-08-12T02:48:54;10.52;;;3.75;;
41875;SDS011;27555;50.808;4.402;2023-08-12T02:51:20;11.23;;;4.28;;
41875;SDS011;27555;50.808;4.402;2023-08-12T02:53:45;9.60;;;3.92;;
41875;SDS011;27555;50.808;4.402;2023-08-12T02:56:11;8.93;;;3.78;;
41875;SDS011;27555;50.808;4.402;2023-08-12T02:58:37;11.40;;;4.18;;
41875;SDS011;27555;50.808;4.402;2023-08-12T03:01:02;9.52;;;4.38;;
41875;SDS011;27555;50.808;4.402;2023-08-12T03:03:29;11.10;;;4.35;;
41875;SDS011;27555;50.808;4.402;2023-08-12T03:05:54;12.85;;;4.55;;
41875;SDS011;27555;50.808;4.402;2023-08-12T03:08:20;14.73;;;5.32;;
41875;SDS011;27555;50.808;4.402;2023-08-12T03:10:46;11.93;;;4.35;;
41875;SDS011;27555;50.808;4.402;2023-08-12T03:13:11;9.50;;;3.85;;
41875;SDS011;27555;50.808;4.402;2023-08-12T03:15:40;13.57;;;4.93;;
41875;SDS011;27555;50.808;4.402;2023-08-12T03:18:07;10.02;;;4.15;;
41875;SDS011;27555;50.808;4.402;2023-08-12T03:20:33;10.80;;;5.38;;
41875;SDS011;27555;50.808;4.402;2023-08-12T03:22:59;14.60;;;4.47;;
41875;SDS011;27555;50.808;4.402;2023-08-12T03:25:25;18.20;;;5.22;;
41875;SDS011;27555;50.808;4.402;2023-08-12T03:27:51;9.73;;;4.63;;
41875;SDS011;27555;50.808;4.402;2023-08-12T03:30:16;13.77;;;4.82;;
41875;SDS011;27555;50.808;4.402;2023-08-12T03:32:42;10.32;;;4.70;;
41875;SDS011;27555;50.808;4.402;2023-08-12T03:35:08;5.65;;;3.58;;
41875;SDS011;27555;50.808;4.402;2023-08-12T03:37:34;8.82;;;4.38;;
41875;SDS011;27555;50.808;4.402;2023-08-12T03:39:59;14.15;;;5.15;;
41875;SDS011;27555;50.808;4.402;2023-08-12T03:42:25;9.35;;;4.40;;
41875;SDS011;27555;50.808;4.402;2023-08-12T03:44:51;11.05;;;4.68;;
41875;SDS011;27555;50.808;4.402;2023-08-12T03:47:18;12.23;;;4.50;;
41875;SDS011;27555;50.808;4.402;2023-08-12T03:49:47;6.93;;;4.53;;
41875;SDS011;27555;50.808;4.402;2023-08-12T03:52:12;6.45;;;3.45;;
41875;SDS011;27555;50.808;4.402;2023-08-12T03:54:38;8.73;;;4.35;;
41875;SDS011;27555;50.808;4.402;2023-08-12T03:57:04;8.05;;;3.90;;
41875;SDS011;27555;50.808;4.402;2023-08-12T03:59:29;5.90;;;3.42;;
41875;SDS011;27555;50.808;4.402;2023-08-12T04:01:55;5.15;;;3.97;;
41875;SDS011;27555;50.808;4.402;2023-08-12T04:04:20;6.88;;;3.42;;
41875;SDS011;27555;50.808;4.402;2023-08-12T04:06:46;5.65;;;3.58;;
41875;SDS011;27555;50.808;4.402;2023-08-12T04:09:16;6.72;;;3.20;;
41875;SDS011;27555;50.808;4.402;2023-08-12T04:11:42;6.90;;;2.90;;
41875;SDS011;27555;50.808;4.402;2023-08-12T04:14:08;4.95;;;2.78;;
41875;SDS011;27555;50.808;4.402;2023-08-12T04:16:33;5.72;;;3.05;;
41875;SDS011;27555;50.808;4.402;2023-08-12T04:18:59;5.50;;;3.22;;
41875;SDS011;27555;50.808;4.402;2023-08-12T04:21:26;6.47;;;2.97;;
41875;SDS011;27555;50.808;4.402;2023-08-12T04:23:51;7.80;;;2.92;;
41875;SDS011;27555;50.808;4.402;2023-08-12T04:26:17;4.90;;;2.25;;
41875;SDS011;27555;50.808;4.402;2023-08-12T04:28:42;2.45;;;1.80;;
41875;SDS011;27555;50.808;4.402;2023-08-12T04:31:08;5.10;;;2.38;;
41875;SDS011;27555;50.808;4.402;2023-08-12T04:33:34;5.00;;;2.40;;
41875;SDS011;27555;50.808;4.402;2023-08-12T04:35:59;2.95;;;2.05;;
41875;SDS011;27555;50.808;4.402;2023-08-12T04:38:25;3.13;;;2.03;;
41875;SDS011;27555;50.808;4.402;2023-08-12T04:40:52;7.40;;;2.20;;
41875;SDS011;27555;50.808;4.402;2023-08-12T04:43:18;4.03;;;2.30;;
41875;SDS011;27555;50.808;4.402;2023-08-12T04:45:47;2.50;;;1.75;;
41875;SDS011;27555;50.808;4.402;2023-08-12T04:48:13;6.32;;;2.03;;
41875;SDS011;27555;50.808;4.402;2023-08-12T04:50:39;2.45;;;1.67;;
41875;SDS011;27555;50.808;4.402;2023-08-12T04:53:05;3.05;;;2.00;;
41875;SDS011;27555;50.808;4.402;2023-08-12T04:55:31;3.80;;;1.98;;
41875;SDS011;27555;50.808;4.402;2023-08-12T04:57:56;3.35;;;1.90;;
41875;SDS011;27555;50.808;4.402;2023-08-12T05:00:22;7.65;;;3.60;;
41875;SDS011;27555;50.808;4.402;2023-08-12T05:02:48;4.45;;;1.75;;
41875;SDS011;27555;50.808;4.402;2023-08-12T05:05:14;3.25;;;1.88;;
41875;SDS011;27555;50.808;4.402;2023-08-12T05:07:40;3.35;;;1.77;;
41875;SDS011;27555;50.808;4.402;2023-08-12T05:10:05;3.35;;;2.22;;
41875;SDS011;27555;50.808;4.402;2023-08-12T05:12:31;2.90;;;2.33;;
41875;SDS011;27555;50.808;4.402;2023-08-12T05:14:57;3.45;;;2.50;;
41875;SDS011;27555;50.808;4.402;2023-08-12T05:17:23;5.03;;;2.70;;
41875;SDS011;27555;50.808;4.402;2023-08-12T05:19:49;4.45;;;2.67;;
41875;SDS011;27555;50.808;4.402;2023-08-12T05:22:15;3.88;;;2.88;;
41875;SDS011;27555;50.808;4.402;2023-08-12T05:24:41;5.18;;;3.03;;
41875;SDS011;27555;50.808;4.402;2023-08-12T05:27:07;4.78;;;3.20;;
41875;SDS011;27555;50.808;4.402;2023-08-12T05:29:32;7.32;;;3.50;;
41875;SDS011;27555;50.808;4.402;2023-08-12T05:31:58;5.55;;;2.97;;
41875;SDS011;27555;50.808;4.402;2023-08-12T05:34:24;6.35;;;3.30;;
41875;SDS011;27555;50.808;4.402;2023-08-12T05:36:49;4.75;;;3.30;;
41875;SDS011;27555;50.808;4.402;2023-08-12T05:39:16;5.82;;;3.10;;
41875;SDS011;27555;50.808;4.402;2023-08-12T05:41:43;3.80;;;2.92;;
41875;SDS011;27555;50.808;4.402;2023-08-12T05:44:09;5.50;;;3.50;;
41875;SDS011;27555;50.808;4.402;2023-08-12T05:46:35;4.43;;;3.17;;
41875;SDS011;27555;50.808;4.402;2023-08-12T05:49:01;8.63;;;3.33;;
41875;SDS011;27555;50.808;4.402;2023-08-12T05:51:27;6.72;;;3.30;;
41875;SDS011;27555;50.808;4.402;2023-08-12T05:53:53;4.13;;;3.45;;
41875;SDS011;27555;50.808;4.402;2023-08-12T05:56:18;4.40;;;3.40;;
41875;SDS011;27555;50.808;4.402;2023-08-12T05:58:45;4.70;;;3.50;;
41875;SDS011;27555;50.808;4.402;2023-08-12T06:01:18;8.73;;;3.63;;
41875;SDS011;27555;50.808;4.402;2023-08-12T06:03:44;7.72;;;4.35;;
41875;SDS011;27555;50.808;4.402;2023-08-12T06:06:10;7.38;;;4.32;;
41875;SDS011;27555;50.808;4.402;2023-08-12T06:08:35;6.65;;;4.55;;
41875;SDS011;27555;50.808;4.402;2023-08-12T06:11:04;9.45;;;4.53;;
41875;SDS011;27555;50.808;4.402;2023-08-12T06:13:30;11.38;;;5.10;;
41875;SDS011;27555;50.808;4.402;2023-08-12T06:15:55;7.13;;;4.95;;
41875;SDS011;27555;50.808;4.402;2023-08-12T06:18:22;7.90;;;4.18;;
41875;SDS011;27555;50.808;4.402;2023-08-12T06:20:47;5.82;;;3.90;;
41875;SDS011;27555;50.808;4.402;2023-08-12T06:23:13;4.45;;;3.63;;
41875;SDS011;27555;50.808;4.402;2023-08-12T06:25:41;4.65;;;3.50;;
41875;SDS011;27555;50.808;4.402;2023-08-12T06:28:08;12.07;;;4.15;;
41875;SDS011;27555;50.808;4.402;2023-08-12T06:30:35;5.88;;;3.70;;
41875;SDS011;27555;50.808;4.402;2023-08-12T06:33:01;5.45;;;3.58;;
41875;SDS011;27555;50.808;4.402;2023-08-12T06:35:27;6.20;;;4.07;;
41875;SDS011;27555;50.808;4.402;2023-08-12T06:37:53;4.70;;;3.30;;
41875;SDS011;27555;50.808;4.402;2023-08-12T06:40:18;4.70;;;3.40;;
41875;SDS011;27555;50.808;4.402;2023-08-12T06:42:44;3.55;;;2.88;;
41875;SDS011;27555;50.808;4.402;2023-08-12T06:45:10;2.97;;;2.63;;
41875;SDS011;27555;50.808;4.402;2023-08-12T06:47:36;3.70;;;3.00;;
41875;SDS011;27555;50.808;4.402;2023-08-12T06:50:02;2.85;;;2.35;;
41875;SDS011;27555;50.808;4.402;2023-08-12T06:52:30;3.40;;;2.33;;
41875;SDS011;27555;50.808;4.402;2023-08-12T06:54:56;5.22;;;2.58;;
41875;SDS011;27555;50.808;4.402;2023-08-12T06:57:21;3.83;;;2.45;;
41875;SDS011;27555;50.808;4.402;2023-08-12T06:59:47;2.42;;;2.22;;
41875;SDS011;27555;50.808;4.402;2023-08-12T07:02:13;3.60;;;2.30;;
41875;SDS011;27555;50.808;4.402;2023-08-12T07:04:39;2.85;;;2.30;;
41875;SDS011;27555;50.808;4.402;2023-08-12T07:07:04;2.58;;;2.17;;
41875;SDS011;27555;50.808;4.402;2023-08-12T07:09:30;2.72;;;2.40;;
41875;SDS011;27555;50.808;4.402;2023-08-12T07:11:56;2.67;;;2.45;;
41875;SDS011;27555;50.808;4.402;2023-08-12T07:14:21;1.85;;;1.75;;
41875;SDS011;27555;50.808;4.402;2023-08-12T07:16:47;3.47;;;2.58;;
41875;SDS011;27555;50.808;4.402;2023-08-12T07:19:13;4.68;;;2.75;;
41875;SDS011;27555;50.808;4.402;2023-08-12T07:21:39;2.65;;;2.45;;
41875;SDS011;27555;50.808;4.402;2023-08-12T07:24:05;3.20;;;2.38;;
41875;SDS011;27555;50.808;4.402;2023-08-12T07:26:31;3.88;;;2.85;;
41875;SDS011;27555;50.808;4.402;2023-08-12T07:28:57;6.63;;;3.67;;
41875;SDS011;27555;50.808;4.402;2023-08-12T07:31:22;7.18;;;4.00;;
41875;SDS011;27555;50.808;4.402;2023-08-12T07:33:48;5.45;;;3.58;;
41875;SDS011;27555;50.808;4.402;2023-08-12T07:36:14;6.65;;;4.32;;
41875;SDS011;27555;50.808;4.402;2023-08-12T07:38:39;5.78;;;4.00;;
41875;SDS011;27555;50.808;4.402;2023-08-12T07:41:05;4.03;;;3.28;;
41875;SDS011;27555;50.808;4.402;2023-08-12T07:43:31;4.75;;;3.83;;
41875;SDS011;27555;50.808;4.402;2023-08-12T07:45:56;5.93;;;4.28;;
41875;SDS011;27555;50.808;4.402;2023-08-12T07:48:22;5.38;;;4.70;;
41875;SDS011;27555;50.808;4.402;2023-08-12T07:50:54;5.30;;;4.80;;
41875;SDS011;27555;50.808;4.402;2023-08-12T07:53:22;5.78;;;4.70;;
41875;SDS011;27555;50.808;4.402;2023-08-12T07:55:49;5.53;;;5.03;;
41875;SDS011;27555;50.808;4.402;2023-08-12T07:58:14;4.88;;;4.32;;
41875;SDS011;27555;50.808;4.402;2023-08-12T08:00:40;6.80;;;5.07;;
41875;SDS011;27555;50.808;4.402;2023-08-12T08:03:06;6.43;;;5.05;;
41875;SDS011;27555;50.808;4.402;2023-08-12T08:05:31;6.35;;;4.78;;
41875;SDS011;27555;50.808;4.402;2023-08-12T08:07:57;8.73;;;4.95;;
41875;SDS011;27555;50.808;4.402;2023-08-12T08:10:23;3.88;;;3.58;;
41875;SDS011;27555;50.808;4.402;2023-08-12T08:12:49;4.25;;;3.85;;
41875;SDS011;27555;50.808;4.402;2023-08-12T08:15:14;7.32;;;3.90;;
41875;SDS011;27555;50.808;4.402;2023-08-12T08:17:40;4.82;;;4.00;;
41875;SDS011;27555;50.808;4.402;2023-08-12T08:20:06;4.70;;;3.65;;
41875;SDS011;27555;50.808;4.402;2023-08-12T08:22:33;3.42;;;3.08;;
41875;SDS011;27555;50.808;4.402;2023-08-12T08:24:58;3.75;;;2.63;;
41875;SDS011;27555;50.808;4.402;2023-08-12T08:27:24;4.35;;;2.35;;
41875;SDS011;27555;50.808;4.402;2023-08-12T08:29:50;4.32;;;1.92;;
41875;SDS011;27555;50.808;4.402;2023-08-12T08:32:16;2.45;;;1.77;;
41875;SDS011;27555;50.808;4.402;2023-08-12T08:34:41;3.42;;;1.50;;
41875;SDS011;27555;50.808;4.402;2023-08-12T08:37:07;1.13;;;0.90;;
41875;SDS011;27555;50.808;4.402;2023-08-12T08:39:33;3.40;;;1.65;;
41875;SDS011;27555;50.808;4.402;2023-08-12T08:42:02;2.42;;;1.00;;
41875;SDS011;27555;50.808;4.402;2023-08-12T08:44:30;1.42;;;0.88;;
41875;SDS011;27555;50.808;4.402;2023-08-12T08:46:58;3.55;;;1.05;;
41875;SDS011;27555;50.808;4.402;2023-08-12T08:49:24;1.48;;;0.90;;
41875;SDS011;27555;50.808;4.402;2023-08-12T08:51:51;1.05;;;0.70;;
41875;SDS011;27555;50.808;4.402;2023-08-12T08:54:18;1.83;;;1.25;;
41875;SDS011;27555;50.808;4.402;2023-08-12T08:56:44;2.03;;;1.13;;
41875;SDS011;27555;50.808;4.402;2023-08-12T08:59:10;2.08;;;1.25;;
41875;SDS011;27555;50.808;4.402;2023-08-12T09:01:36;2.10;;;1.13;;
41875;SDS011;27555;50.808;4.402;2023-08-12T09:04:03;5.72;;;0.80;;
41875;SDS011;27555;50.808;4.402;2023-08-12T09:06:30;2.20;;;0.80;;
41875;SDS011;27555;50.808;4.402;2023-08-12T09:08:56;4.88;;;1.00;;
41875;SDS011;27555;50.808;4.402;2023-08-12T09:11:23;2.63;;;0.90;;
41875;SDS011;27555;50.808;4.402;2023-08-12T09:13:49;5.35;;;0.85;;
41875;SDS011;27555;50.808;4.402;2023-08-12T09:16:15;3.25;;;1.33;;
41875;SDS011;27555;50.808;4.402;2023-08-12T09:18:44;2.20;;;0.70;;
41875;SDS011;27555;50.808;4.402;2023-08-12T09:21:10;3.35;;;0.70;;
41875;SDS011;27555;50.808;4.402;2023-08-12T09:23:39;2.28;;;0.68;;
41875;SDS011;27555;50.808;4.402;2023-08-12T09:26:13;3.08;;;0.90;;
41875;SDS011;27555;50.808;4.402;2023-08-12T09:28:40;3.05;;;0.80;;
41875;SDS011;27555;50.808;4.402;2023-08-12T09:31:21;4.05;;;1.80;;
41875;SDS011;27555;50.808;4.402;2023-08-12T09:33:53;2.13;;;0.80;;
41875;SDS011;27555;50.808;4.402;2023-08-12T09:36:23;6.32;;;0.95;;
41875;SDS011;27555;50.808;4.402;2023-08-12T09:38:49;3.78;;;0.95;;
41875;SDS011;27555;50.808;4.402;2023-08-12T09:41:15;4.00;;;0.95;;
41875;SDS011;27555;50.808;4.402;2023-08-12T09:43:44;3.05;;;1.00;;
41875;SDS011;27555;50.808;4.402;2023-08-12T09:46:12;2.78;;;0.93;;
41875;SDS011;27555;50.808;4.402;2023-08-12T09:48:41;5.97;;;1.75;;
41875;SDS011;27555;50.808;4.402;2023-08-12T09:51:08;5.30;;;1.35;;
41875;SDS011;27555;50.808;4.402;2023-08-12T09:53:35;7.28;;;1.10;;
41875;SDS011;27555;50.808;4.402;2023-08-12T09:56:05;6.85;;;1.10;;
41875;SDS011;27555;50.808;4.402;2023-08-12T09:58:35;3.90;;;0.93;;
41875;SDS011;27555;50.808;4.402;2023-08-12T10:01:02;1.70;;;0.85;;
41875;SDS011;27555;50.808;4.402;2023-08-12T10:03:29;3.13;;;1.35;;
41875;SDS011;27555;50.808;4.402;2023-08-12T10:05:57;5.40;;;1.40;;
41875;SDS011;27555;50.808;4.402;2023-08-12T10:08:24;6.38;;;1.48;;
41875;SDS011;27555;50.808;4.402;2023-08-12T10:10:52;3.00;;;0.85;;
41875;SDS011;27555;50.808;4.402;2023-08-12T10:13:17;4.18;;;1.13;;
41875;SDS011;27555;50.808;4.402;2023-08-12T10:15:45;3.55;;;1.52;;
41875;SDS011;27555;50.808;4.402;2023-08-12T10:18:12;3.28;;;1.30;;
41875;SDS011;27555;50.808;4.402;2023-08-12T10:20:39;4.60;;;1.15;;
41875;SDS011;27555;50.808;4.402;2023-08-12T10:23:05;5.07;;;1.30;;
41875;SDS011;27555;50.808;4.402;2023-08-12T10:25:32;6.07;;;1.30;;
41875;SDS011;27555;50.808;4.402;2023-08-12T10:27:59;2.45;;;1.08;;
41875;SDS011;27555;50.808;4.402;2023-08-12T10:30:29;3.75;;;1.05;;
41875;SDS011;27555;50.808;4.402;2023-08-12T10:32:56;2.53;;;1.20;;
41875;SDS011;27555;50.808;4.402;2023-08-12T10:35:24;4.72;;;1.15;;
41875;SDS011;27555;50.808;4.402;2023-08-12T10:38:05;3.92;;;1.20;;
41875;SDS011;27555;50.808;4.402;2023-08-12T10:40:31;3.33;;;0.80;;
41875;SDS011;27555;50.808;4.402;2023-08-12T10:42:57;4.47;;;1.38;;
41875;SDS011;27555;50.808;4.402;2023-08-12T10:45:23;3.70;;;1.25;;
41875;SDS011;27555;50.808;4.402;2023-08-12T10:48:15;6.47;;;1.00;;
41875;SDS011;27555;50.808;4.402;2023-08-12T10:50:45;4.63;;;1.58;;
41875;SDS011;27555;50.808;4.402;2023-08-12T10:53:20;3.88;;;1.08;;
41875;SDS011;27555;50.808;4.402;2023-08-12T10:55:49;3.58;;;1.23;;
41875;SDS011;27555;50.808;4.402;2023-08-12T10:58:35;3.92;;;1.02;;
41875;SDS011;27555;50.808;4.402;2023-08-12T11:01:08;4.22;;;0.80;;
41875;SDS011;27555;50.808;4.402;2023-08-12T11:03:43;3.55;;;0.93;;
41875;SDS011;27555;50.808;4.402;2023-08-12T11:06:12;5.93;;;0.95;;
41875;SDS011;27555;50.808;4.402;2023-08-12T11:08:47;10.02;;;2.13;;
41875;SDS011;27555;50.808;4.402;2023-08-12T11:11:24;4.43;;;1.10;;
41875;SDS011;27555;50.808;4.402;2023-08-12T11:13:53;3.97;;;1.25;;
41875;SDS011;27555;50.808;4.402;2023-08-12T11:16:30;5.75;;;1.20;;
41875;SDS011;27555;50.808;4.402;2023-08-12T11:19:02;9.13;;;1.23;;
41875;SDS011;27555;50.808;4.402;2023-08-12T11:21:28;8.93;;;1.23;;
41875;SDS011;27555;50.808;4.402;2023-08-12T11:23:54;9.43;;;1.35;;
41875;SDS011;27555;50.808;4.402;2023-08-12T11:26:21;3.97;;;1.65;;
41875;SDS011;27555;50.808;4.402;2023-08-12T11:28:48;5.38;;;1.23;;
41875;SDS011;27555;50.808;4.402;2023-08-12T11:31:14;3.80;;;0.95;;
41875;SDS011;27555;50.808;4.402;2023-08-12T11:33:40;8.63;;;1.30;;
41875;SDS011;27555;50.808;4.402;2023-08-12T11:36:07;7.38;;;1.20;;
41875;SDS011;27555;50.808;4.402;2023-08-12T11:38:32;6.72;;;1.13;;
41875;SDS011;27555;50.808;4.402;2023-08-12T11:41:00;5.43;;;1.40;;
41875;SDS011;27555;50.808;4.402;2023-08-12T11:43:29;4.07;;;1.10;;
41875;SDS011;27555;50.808;4.402;2023-08-12T11:45:57;4.10;;;1.25;;
41875;SDS011;27555;50.808;4.402;2023-08-12T11:48:23;3.95;;;1.02;;
41875;SDS011;27555;50.808;4.402;2023-08-12T11:50:49;2.72;;;1.08;;
41875;SDS011;27555;50.808;4.402;2023-08-12T11:53:15;3.60;;;1.10;;
41875;SDS011;27555;50.808;4.402;2023-08-12T11:55:41;4.60;;;0.98;;
41875;SDS011;27555;50.808;4.402;2023-08-12T11:58:07;4.38;;;1.17;;
41875;SDS011;27555;50.808;4.402;2023-08-12T12:00:33;3.63;;;0.98;;
41875;SDS011;27555;50.808;4.402;2023-08-12T12:02:59;7.57;;;1.70;;
41875;SDS011;27555;50.808;4.402;2023-08-12T12:05:29;6.15;;;1.17;;
41875;SDS011;27555;50.808;4.402;2023-08-12T12:07:59;6.10;;;1.02;;
41875;SDS011;27555;50.808;4.402;2023-08-12T12:10:26;3.10;;;1.20;;
41875;SDS011;27555;50.808;4.402;2023-08-12T12:12:56;6.55;;;1.60;;
41875;SDS011;27555;50.808;4.402;2023-08-12T12:15:23;11.48;;;1.48;;
41875;SDS011;27555;50.808;4.402;2023-08-12T12:17:49;6.38;;;1.50;;
41875;SDS011;27555;50.808;4.402;2023-08-12T12:20:16;5.05;;;1.38;;
41875;SDS011;27555;50.808;4.402;2023-08-12T12:22:42;4.30;;;1.38;;
41875;SDS011;27555;50.808;4.402;2023-08-12T12:25:10;3.97;;;1.23;;
41875;SDS011;27555;50.808;4.402;2023-08-12T12:27:38;5.05;;;1.85;;
41875;SDS011;27555;50.808;4.402;2023-08-12T12:30:05;7.13;;;1.67;;
41875;SDS011;27555;50.808;4.402;2023-08-12T12:32:36;7.85;;;2.08;;
41875;SDS011;27555;50.808;4.402;2023-08-12T12:35:02;8.25;;;1.70;;
41875;SDS011;27555;50.808;4.402;2023-08-12T12:37:29;8.90;;;1.38;;
41875;SDS011;27555;50.808;4.402;2023-08-12T12:39:55;7.50;;;1.45;;
41875;SDS011;27555;50.808;4.402;2023-08-12T12:42:21;5.35;;;1.45;;
41875;SDS011;27555;50.808;4.402;2023-08-12T12:44:46;4.55;;;1.52;;
41875;SDS011;27555;50.808;4.402;2023-08-12T12:47:12;7.07;;;1.98;;
41875;SDS011;27555;50.808;4.402;2023-08-12T12:49:41;11.07;;;1.60;;
41875;SDS011;27555;50.808;4.402;2023-08-12T12:52:06;4.43;;;1.10;;
41875;SDS011;27555;50.808;4.402;2023-08-12T12:54:32;4.47;;;1.90;;
41875;SDS011;27555;50.808;4.402;2023-08-12T12:56:58;5.10;;;1.27;;
41875;SDS011;27555;50.808;4.402;2023-08-12T12:59:24;2.70;;;1.25;;
41875;SDS011;27555;50.808;4.402;2023-08-12T13:01:49;6.20;;;1.50;;
41875;SDS011;27555;50.808;4.402;2023-08-12T13:04:16;6.78;;;1.90;;
41875;SDS011;27555;50.808;4.402;2023-08-12T13:06:41;3.70;;;1.35;;
41875;SDS011;27555;50.808;4.402;2023-08-12T13:09:07;3.88;;;1.27;;
41875;SDS011;27555;50.808;4.402;2023-08-12T13:11:33;2.75;;;0.90;;
41875;SDS011;27555;50.808;4.402;2023-08-12T13:14:02;3.60;;;1.30;;
41875;SDS011;27555;50.808;4.402;2023-08-12T13:16:28;4.53;;;1.17;;
41875;SDS011;27555;50.808;4.402;2023-08-12T13:18:55;7.75;;;1.35;;
41875;SDS011;27555;50.808;4.402;2023-08-12T13:21:23;5.85;;;1.25;;
41875;SDS011;27555;50.808;4.402;2023-08-12T13:23:49;9.07;;;1.90;;
41875;SDS011;27555;50.808;4.402;2023-08-12T13:26:15;4.93;;;0.98;;
41875;SDS011;27555;50.808;4.402;2023-08-12T13:28:41;3.78;;;1.35;;
41875;SDS011;27555;50.808;4.402;2023-08-12T13:31:06;3.47;;;1.20;;
41875;SDS011;27555;50.808;4.402;2023-08-12T13:33:33;5.25;;;1.23;;
41875;SDS011;27555;50.808;4.402;2023-08-12T13:35:59;5.25;;;1.23;;
41875;SDS011;27555;50.808;4.402;2023-08-12T13:38:25;3.65;;;0.90;;
41875;SDS011;27555;50.808;4.402;2023-08-12T13:40:50;6.70;;;0.93;;
41875;SDS011;27555;50.808;4.402;2023-08-12T13:43:16;3.22;;;1.05;;
41875;SDS011;27555;50.808;4.402;2023-08-12T13:45:41;4.75;;;1.55;;
41875;SDS011;27555;50.808;4.402;2023-08-12T13:48:08;6.20;;;1.02;;
41875;SDS011;27555;50.808;4.402;2023-08-12T13:50:34;5.15;;;0.70;;
41875;SDS011;27555;50.808;4.402;2023-08-12T13:52:59;4.18;;;1.45;;
41875;SDS011;27555;50.808;4.402;2023-08-12T13:55:25;6.07;;;2.13;;
41875;SDS011;27555;50.808;4.402;2023-08-12T13:57:51;4.40;;;1.30;;
41875;SDS011;27555;50.808;4.402;2023-08-12T14:00:18;5.97;;;1.15;;
41875;SDS011;27555;50.808;4.402;2023-08-12T14:02:44;6.03;;;1.92;;
41875;SDS011;27555;50.808;4.402;2023-08-12T14:05:10;3.70;;;0.85;;
41875;SDS011;27555;50.808;4.402;2023-08-12T14:07:36;2.83;;;1.23;;
41875;SDS011;27555;50.808;4.402;2023-08-12T14:10:02;3.40;;;1.45;;
41875;SDS011;27555;50.808;4.402;2023-08-12T14:12:28;5.00;;;1.13;;
41875;SDS011;27555;50.808;4.402;2023-08-12T14:14:54;7.25;;;1.55;;
41875;SDS011;27555;50.808;4.402;2023-08-12T14:17:20;10.75;;;1.35;;
41875;SDS011;27555;50.808;4.402;2023-08-12T14:19:48;5.65;;;0.80;;
41875;SDS011;27555;50.808;4.402;2023-08-12T14:22:14;5.00;;;1.00;;
41875;SDS011;27555;50.808;4.402;2023-08-12T14:24:40;7.82;;;1.40;;
41875;SDS011;27555;50.808;4.402;2023-08-12T14:27:06;4.95;;;1.13;;
41875;SDS011;27555;50.808;4.402;2023-08-12T14:29:32;4.63;;;1.00;;
41875;SDS011;27555;50.808;4.402;2023-08-12T14:31:57;3.35;;;0.98;;
41875;SDS011;27555;50.808;4.402;2023-08-12T14:34:23;2.08;;;0.85;;
41875;SDS011;27555;50.808;4.402;2023-08-12T14:36:49;7.35;;;1.35;;
41875;SDS011;27555;50.808;4.402;2023-08-12T14:39:15;3.33;;;1.10;;
41875;SDS011;27555;50.808;4.402;2023-08-12T14:41:40;6.75;;;2.10;;
41875;SDS011;27555;50.808;4.402;2023-08-12T14:44:06;2.60;;;1.10;;